Time,TemperatureF,DewpointF,PressureIn,WindDirection,WindDirectionDegrees,WindSpeedMPH,WindSpeedGustMPH,Humidity,HourlyPrecipIn,Conditions,Clouds,dailyrainin,SoftwareType,DateUTC
2013-08-21 00:00:00,78.0,70.0,23.45,North,351,3.0,-999.0,77,-99.99,,,0.00,weatherlink.com 1.10,2013-08-21 04:00:00,
2013-08-21 00:15:00,77.5,69.0,23.45,NNW,343,3.0,-999.0,75,-99.99,,,0.00,weatherlink.com 1.10,2013-08-21 04:15:00,
2013-08-21 00:30:00,77.2,70.0,23.39,NNW,340,2.0,-999.0,77,-99.99,,,0.00,weatherlink.com 1.10,2013-08-21 04:30:00,
2013-08-21 00:45:00,76.7,69.0,22.77,NW,315,4.0,-999.0,77,-99.99,,,0.00,weatherlink.com 1.10,2013-08-21 04:45:00,
2013-08-21 01:00:00,76.4,68.0,22.77,WNW,299,1.0,-999.0,74,-99.99,,,0.00,weatherlink.com 1.10,2013-08-21 05:00:00,
2013-08-21 01:15:00,76.3,67.0,22.77,NNW,339,5.0,-999.0,74,-99.99,,,0.00,weatherlink.com 1.10,2013-08-21 05:15:00,
2013-08-21 01:30:00,76.3,70.0,22.77,NNW,348,3.0,-999.0,82,-99.99,,,0.00,weatherlink.com 1.10,2013-08-21 05:30:00,
2013-08-21 01:45:00,76.2,69.0,23.45,WNW,287,1.0,-999.0,79,-99.99,,,0.00,weatherlink.com 1.10,2013-08-21 05:45:00,
2013-08-21 02:00:00,76.0,71.0,22.67,WNW,282,3.0,-999.0,83,-99.99,,,0.00,weatherlink.com 1.10,2013-08-21 06:00:00,
2013-08-21 02:15:00,75.1,69.0,22.67,NNW,332,3.0,-999.0,80,-99.99,,,0.00,weatherlink.com 1.10,2013-08-21 06:15:00,
2013-08-21 02:30:00,74.9,69.0,22.15,NNE,27,0.0,-999.0,81,-99.99,,,0.00,weatherlink.com 1.10,2013-08-21 06:30:00,
2013-08-21 02:45:00,74.8,69.0,23.96,NNW,335,4.0,-999.0,82,-99.99,,,0.00,weatherlink.com 1.10,2013-08-21 06:45:00,
2013-08-21 03:00:00,74.7,69.0,23.96,NW,310,5.0,-999.0,82,-99.99,,,0.00,weatherlink.com 1.10,2013-08-21 07:00:00,
2013-08-21 03:15:00,74.9,69.0,23.96,NW,320,4.0,-999.0,83,-99.99,,,0.00,weatherlink.com 1.10,2013-08-21 07:15:00,
2013-08-21 03:30:00,74.6,68.0,23.96,NW,306,4.0,-999.0,81,-99.99,,,0.00,weatherlink.com 1.10,2013-08-21 07:30:00,
2013-08-21 03:46:00,74.5,70.0,23.96,NNW,342,6.0,-999.0,85,-99.99,,,0.00,weatherlink.com 1.10,2013-08-21 07:46:00,
2013-08-21 04:01:00,74.7,70.0,23.96,NNW,337,4.0,-999.0,84,-99.99,,,0.00,weatherlink.com 1.10,2013-08-21 08:01:00,
2013-08-21 04:16:00,74.8,69.0,23.96,NE,56,1.0,-999.0,82,-99.99,,,0.00,weatherlink.com 1.10,2013-08-21 08:16:00,
2013-08-21 04:31:00,74.1,68.0,23.45,NNW,339,0.0,-999.0,80,-99.99,,,0.00,weatherlink.com 1.10,2013-08-21 08:31:00,
2013-08-21 04:46:00,73.9,69.0,23.45,NNE,31,0.0,-999.0,83,-99.99,,,0.00,weatherlink.com 1.10,2013-08-21 08:46:00,
2013-08-21 05:01:00,73.9,69.0,23.45,NW,304,3.0,-999.0,83,-99.99,,,0.00,weatherlink.com 1.10,2013-08-21 09:01:00,
2013-08-21 05:16:00,73.4,69.0,23.45,WNW,291,0.0,-999.0,85,-99.99,,,0.00,weatherlink.com 1.10,2013-08-21 09:16:00,
2013-08-21 05:31:00,72.9,69.0,23.45,NNW,336,5.0,-999.0,87,-99.99,,,0.00,weatherlink.com 1.10,2013-08-21 09:31:00,
2013-08-21 05:46:00,73.1,69.0,23.45,NE,45,0.0,-999.0,87,-99.99,,,0.00,weatherlink.com 1.10,2013-08-21 09:46:00,
2013-08-21 06:01:00,73.0,69.0,23.45,NW,306,5.0,-999.0,86,-99.99,,,0.00,weatherlink.com 1.10,2013-08-21 10:01:00,
2013-08-21 06:16:00,72.8,69.0,23.45,NW,311,6.0,-999.0,87,-99.99,,,0.00,weatherlink.com 1.10,2013-08-21 10:16:00,
2013-08-21 06:31:00,72.4,68.0,23.45,NNW,332,0.0,-999.0,86,-99.99,,,0.00,weatherlink.com 1.10,2013-08-21 10:31:00,
2013-08-21 06:46:00,73.1,70.0,23.45,NW,306,5.0,-999.0,90,-99.99,,,0.00,weatherlink.com 1.10,2013-08-21 10:46:00,
2013-08-21 07:01:00,72.4,68.0,23.45,NW,305,0.0,-999.0,87,-99.99,,,0.00,weatherlink.com 1.10,2013-08-21 11:01:00,
2013-08-21 07:16:00,72.4,69.0,23.45,WNW,301,4.0,-999.0,88,-99.99,,,0.00,weatherlink.com 1.10,2013-08-21 11:16:00,
2013-08-21 07:31:00,72.4,68.0,23.45,NW,320,3.0,-999.0,87,-99.99,,,0.00,weatherlink.com 1.10,2013-08-21 11:31:00,
2013-08-21 07:46:00,72.7,69.0,23.45,WNW,293,4.0,-999.0,87,-99.99,,,0.00,weatherlink.com 1.10,2013-08-21 11:46:00,
2013-08-21 08:01:00,73.5,70.0,23.45,NW,320,4.0,-999.0,89,-99.99,,,0.00,weatherlink.com 1.10,2013-08-21 12:01:00,
2013-08-21 08:16:00,72.9,68.0,23.45,North,354,4.0,-999.0,83,-99.99,,,0.00,weatherlink.com 1.10,2013-08-21 12:16:00,
2013-08-21 08:31:00,73.2,70.0,23.45,NNW,346,4.0,-999.0,89,-99.99,,,0.00,weatherlink.com 1.10,2013-08-21 12:31:00,
2013-08-21 08:46:00,75.5,70.0,23.45,NW,309,6.0,-999.0,84,-99.99,,,0.00,weatherlink.com 1.10,2013-08-21 12:46:00,
2013-08-21 09:01:00,75.9,71.0,23.45,North,351,4.0,-999.0,84,-99.99,,,0.00,weatherlink.com 1.10,2013-08-21 13:01:00,
2013-08-21 09:16:00,76.8,71.0,23.19,NNW,342,2.0,-999.0,83,-99.99,,,0.00,weatherlink.com 1.10,2013-08-21 13:16:00,
2013-08-21 09:31:00,76.8,69.0,23.19,NNW,333,0.0,-999.0,78,-99.99,,,0.00,weatherlink.com 1.10,2013-08-21 13:31:00,
2013-08-21 09:46:00,77.3,72.0,22.52,NE,50,2.0,-999.0,84,-99.99,,,0.00,weatherlink.com 1.10,2013-08-21 13:46:00,
2013-08-21 10:01:00,77.6,71.0,22.52,WNW,299,3.0,-999.0,80,-99.99,,,0.00,weatherlink.com 1.10,2013-08-21 14:01:00,
2013-08-21 10:16:00,78.7,70.0,22.52,NW,309,0.0,-999.0,75,-99.99,,,0.00,weatherlink.com 1.10,2013-08-21 14:16:00,
2013-08-21 10:31:00,81.5,71.0,22.52,NNE,15,2.0,-999.0,70,-99.99,,,0.00,weatherlink.com 1.10,2013-08-21 14:31:00,
2013-08-21 10:46:00,83.4,71.0,22.52,North,355,2.0,-999.0,67,-99.99,,,0.00,weatherlink.com 1.10,2013-08-21 14:46:00,
2013-08-21 11:01:00,82.4,71.0,22.52,NNW,331,2.0,-999.0,69,-99.99,,,0.00,weatherlink.com 1.10,2013-08-21 15:01:00,
2013-08-21 11:16:00,81.1,71.0,22.52,NW,306,5.0,-999.0,71,-99.99,,,0.00,weatherlink.com 1.10,2013-08-21 15:16:00,
2013-08-21 11:31:00,81.1,71.0,22.52,ESE,115,2.0,-999.0,71,-99.99,,,0.00,weatherlink.com 1.10,2013-08-21 15:31:00,
2013-08-21 11:46:00,82.8,71.0,22.52,North,7,1.0,-999.0,68,-99.99,,,0.00,weatherlink.com 1.10,2013-08-21 15:46:00,
2013-08-21 12:01:00,83.5,71.0,22.52,NE,38,2.0,-999.0,65,-99.99,,,0.00,weatherlink.com 1.10,2013-08-21 16:01:00,
2013-08-21 12:16:00,84.9,71.0,22.52,NNE,18,1.0,-999.0,64,-99.99,,,0.00,weatherlink.com 1.10,2013-08-21 16:16:00,
2013-08-21 12:31:00,87.1,70.0,22.52,NW,325,4.0,-999.0,58,-99.99,,,0.00,weatherlink.com 1.10,2013-08-21 16:31:00,
2013-08-21 12:46:00,87.1,70.0,22.52,North,355,1.0,-999.0,57,-99.99,,,0.00,weatherlink.com 1.10,2013-08-21 16:46:00,
2013-08-21 13:01:00,85.0,70.0,22.52,West,263,2.0,-999.0,61,-99.99,,,0.00,weatherlink.com 1.10,2013-08-21 17:01:00,
2013-08-21 13:16:00,86.6,71.0,22.52,WNW,289,3.0,-999.0,59,-99.99,,,0.00,weatherlink.com 1.10,2013-08-21 17:16:00,
2013-08-21 13:31:00,86.0,71.0,22.52,WNW,293,0.0,-999.0,61,-99.99,,,0.00,weatherlink.com 1.10,2013-08-21 17:31:00,
2013-08-21 13:46:00,82.8,70.0,22.91,North,355,3.0,-999.0,66,-99.99,,,0.00,weatherlink.com 1.10,2013-08-21 17:46:00,
2013-08-21 14:01:00,81.5,70.0,22.91,WNW,294,2.0,-999.0,68,-99.99,,,0.00,weatherlink.com 1.10,2013-08-21 18:01:00,
2013-08-21 14:16:00,77.5,67.0,22.77,WSW,255,1.0,-999.0,71,-99.99,,,0.01,weatherlink.com 1.10,2013-08-21 18:16:00,
2013-08-21 14:31:00,78.4,71.0,22.77,North,359,1.0,-999.0,77,-99.99,,,0.01,weatherlink.com 1.10,2013-08-21 18:31:00,
2013-08-21 14:46:00,78.3,69.0,22.77,North,360,0.0,-999.0,72,-99.99,,,0.01,weatherlink.com 1.10,2013-08-21 18:46:00,
2013-08-21 15:01:00,77.0,68.0,22.77,ESE,113,1.0,-999.0,74,-99.99,,,0.01,weatherlink.com 1.10,2013-08-21 19:01:00,
2013-08-21 15:16:00,77.7,69.0,23.42,WNW,296,2.0,-999.0,74,-99.99,,,0.01,weatherlink.com 1.10,2013-08-21 19:16:00,
2013-08-21 15:31:00,78.3,70.0,23.45,NNE,18,1.0,-999.0,75,-99.99,,,0.01,weatherlink.com 1.10,2013-08-21 19:31:00,
2013-08-21 15:46:00,78.6,70.0,23.45,WNW,286,1.0,-999.0,74,-99.99,,,0.01,weatherlink.com 1.10,2013-08-21 19:46:00,
2013-08-21 16:01:00,81.4,71.0,23.45,NNW,332,1.0,-999.0,70,-99.99,,,0.01,weatherlink.com 1.10,2013-08-21 20:01:00,
2013-08-21 16:16:00,84.3,72.0,23.45,North,357,1.0,-999.0,66,-99.99,,,0.01,weatherlink.com 1.10,2013-08-21 20:16:00,
2013-08-21 16:31:00,85.5,71.0,23.45,NNE,13,0.0,-999.0,63,-99.99,,,0.01,weatherlink.com 1.10,2013-08-21 20:31:00,
2013-08-21 16:46:00,85.9,71.0,23.45,North,350,1.0,-999.0,62,-99.99,,,0.01,weatherlink.com 1.10,2013-08-21 20:46:00,
2013-08-21 17:01:00,86.5,74.0,23.45,WNW,302,5.0,-999.0,66,-99.99,,,0.01,weatherlink.com 1.10,2013-08-21 21:01:00,
2013-08-21 17:16:00,84.8,72.0,23.45,WNW,282,4.0,-999.0,65,-99.99,,,0.01,weatherlink.com 1.10,2013-08-21 21:16:00,
2013-08-21 17:31:00,85.4,70.0,23.45,WNW,300,4.0,-999.0,61,-99.99,,,0.01,weatherlink.com 1.10,2013-08-21 21:31:00,
2013-08-21 17:46:00,85.4,68.0,23.45,NNW,331,2.0,-999.0,57,-99.99,,,0.01,weatherlink.com 1.10,2013-08-21 21:46:00,
2013-08-21 18:01:00,86.8,69.0,32.38,NW,305,2.0,-999.0,56,-99.99,,,0.01,weatherlink.com 1.10,2013-08-21 22:01:00,
2013-08-21 18:16:00,86.7,70.0,32.38,West,279,0.0,-999.0,57,-99.99,,,0.01,weatherlink.com 1.10,2013-08-21 22:16:00,
2013-08-21 18:31:00,84.3,69.0,32.38,NW,304,6.0,-999.0,60,-99.99,,,0.01,weatherlink.com 1.10,2013-08-21 22:31:00,
2013-08-21 18:46:00,83.6,68.0,32.38,NNW,337,4.0,-999.0,60,-99.99,,,0.01,weatherlink.com 1.10,2013-08-21 22:46:00,
2013-08-21 19:01:00,83.5,70.0,23.78,West,272,3.0,-999.0,63,-99.99,,,0.01,weatherlink.com 1.10,2013-08-21 23:01:00,
2013-08-21 19:16:00,82.9,71.0,23.78,WNW,291,3.0,-999.0,67,-99.99,,,0.01,weatherlink.com 1.10,2013-08-21 23:16:00,
2013-08-21 19:31:00,82.6,71.0,23.78,NW,306,3.0,-999.0,68,-99.99,,,0.01,weatherlink.com 1.10,2013-08-21 23:31:00,
2013-08-21 19:46:00,82.1,71.0,23.78,North,350,3.0,-999.0,69,-99.99,,,0.01,weatherlink.com 1.10,2013-08-21 23:46:00,
2013-08-21 20:01:00,82.1,74.0,32.35,NW,310,5.0,-999.0,76,-99.99,,,0.01,weatherlink.com 1.10,2013-08-22 00:01:00,
2013-08-21 20:16:00,81.2,73.0,32.23,WNW,285,4.0,-999.0,75,-99.99,,,0.01,weatherlink.com 1.10,2013-08-22 00:16:00,
2013-08-21 20:31:00,80.7,71.0,32.23,WNW,300,4.0,-999.0,73,-99.99,,,0.01,weatherlink.com 1.10,2013-08-22 00:31:00,
2013-08-21 20:46:00,80.0,69.0,32.23,ENE,59,4.0,-999.0,70,-99.99,,,0.01,weatherlink.com 1.10,2013-08-22 00:46:00,
2013-08-21 21:01:00,79.5,69.0,32.23,NW,307,3.0,-999.0,71,-99.99,,,0.01,weatherlink.com 1.10,2013-08-22 01:01:00,
2013-08-21 21:16:00,78.9,70.0,23.18,NNW,331,2.0,-999.0,74,-99.99,,,0.01,weatherlink.com 1.10,2013-08-22 01:16:00,
2013-08-21 21:31:00,78.6,71.0,23.18,WNW,287,4.0,-999.0,77,-99.99,,,0.01,weatherlink.com 1.10,2013-08-22 01:31:00,
2013-08-21 21:46:00,78.3,71.0,23.18,WNW,302,5.0,-999.0,79,-99.99,,,0.01,weatherlink.com 1.10,2013-08-22 01:46:00,
2013-08-21 22:02:00,77.7,71.0,23.45,WNW,289,4.0,-999.0,80,-99.99,,,0.01,weatherlink.com 1.10,2013-08-22 02:02:00,
2013-08-21 22:17:00,77.1,70.0,23.45,North,352,4.0,-999.0,79,-99.99,,,0.01,weatherlink.com 1.10,2013-08-22 02:17:00,
2013-08-21 22:32:00,76.6,69.0,23.45,NW,304,2.0,-999.0,77,-99.99,,,0.01,weatherlink.com 1.10,2013-08-22 02:32:00,
2013-08-21 22:47:00,76.5,71.0,23.45,WNW,286,4.0,-999.0,83,-99.99,,,0.01,weatherlink.com 1.10,2013-08-22 02:47:00,
2013-08-21 23:02:00,75.9,69.0,23.46,West,274,6.0,-999.0,79,-99.99,,,0.01,weatherlink.com 1.10,2013-08-22 03:02:00,
2013-08-21 23:17:00,75.3,68.0,23.45,NNE,25,2.0,-999.0,79,-99.99,,,0.01,weatherlink.com 1.10,2013-08-22 03:17:00,
2013-08-21 23:47:00,74.7,68.0,23.15,WNW,300,1.0,-999.0,80,-99.99,,,0.01,weatherlink.com 1.10,2013-08-22 03:47:00,